sensor_id;sensor_type;location;lat;lon;timestamp;P1;durP1;ratioP1;P2;durP2;ratioP2
26151;SDS011;13907;53.154;8.202;2022-09-09T00:02:10;6.53;;;3.00;;
26151;SDS011;13907;53.154;8.202;2022-09-09T00:04:40;4.25;;;2.92;;
26151;SDS011;13907;53.154;8.202;2022-09-09T00:07:10;3.55;;;2.65;;
26151;SDS011;13907;53.154;8.202;2022-09-09T00:09:43;3.78;;;2.92;;
26151;SDS011;13907;53.154;8.202;2022-09-09T00:12:14;8.45;;;3.03;;
26151;SDS011;13907;53.154;8.202;2022-09-09T00:14:45;4.97;;;3.28;;
26151;SDS011;13907;53.154;8.202;2022-09-09T00:17:17;4.10;;;3.28;;
26151;SDS011;13907;53.154;8.202;2022-09-09T00:19:51;6.18;;;3.28;;
26151;SDS011;13907;53.154;8.202;2022-09-09T00:22:20;4.03;;;3.08;;
26151;SDS011;13907;53.154;8.202;2022-09-09T00:24:48;3.90;;;2.70;;
26151;SDS011;13907;53.154;8.202;2022-09-09T00:27:20;4.13;;;2.97;;
26151;SDS011;13907;53.154;8.202;2022-09-09T00:29:51;4.15;;;2.92;;
26151;SDS011;13907;53.154;8.202;2022-09-09T00:32:21;6.55;;;3.72;;
26151;SDS011;13907;53.154;8.202;2022-09-09T00:34:49;3.65;;;2.80;;
26151;SDS011;13907;53.154;8.202;2022-09-09T00:37:18;5.78;;;3.75;;
26151;SDS011;13907;53.154;8.202;2022-09-09T00:39:46;4.60;;;3.15;;
26151;SDS011;13907;53.154;8.202;2022-09-09T00:42:14;7.68;;;3.92;;
26151;SDS011;13907;53.154;8.202;2022-09-09T00:44:50;6.53;;;3.42;;
26151;SDS011;13907;53.154;8.202;2022-09-09T00:47:24;4.32;;;2.90;;
26151;SDS011;13907;53.154;8.202;2022-09-09T00:49:58;4.63;;;3.55;;
26151;SDS011;13907;53.154;8.202;2022-09-09T00:52:30;6.30;;;2.92;;
26151;SDS011;13907;53.154;8.202;2022-09-09T00:55:02;6.97;;;3.72;;
26151;SDS011;13907;53.154;8.202;2022-09-09T00:57:31;4.80;;;3.83;;
26151;SDS011;13907;53.154;8.202;2022-09-09T01:00:00;6.97;;;3.42;;
26151;SDS011;13907;53.154;8.202;2022-09-09T01:02:31;5.90;;;4.10;;
26151;SDS011;13907;53.154;8.202;2022-09-09T01:05:05;4.13;;;3.10;;
26151;SDS011;13907;53.154;8.202;2022-09-09T01:07:34;5.53;;;3.55;;
26151;SDS011;13907;53.154;8.202;2022-09-09T01:10:03;3.53;;;2.75;;
26151;SDS011;13907;53.154;8.202;2022-09-09T01:12:35;5.05;;;3.95;;
26151;SDS011;13907;53.154;8.202;2022-09-09T01:15:08;6.32;;;4.38;;
26151;SDS011;13907;53.154;8.202;2022-09-09T01:17:40;4.75;;;3.20;;
26151;SDS011;13907;53.154;8.202;2022-09-09T01:20:10;5.55;;;3.75;;
26151;SDS011;13907;53.154;8.202;2022-09-09T01:22:40;4.85;;;3.67;;
26151;SDS011;13907;53.154;8.202;2022-09-09T01:25:22;8.98;;;3.75;;
26151;SDS011;13907;53.154;8.202;2022-09-09T01:27:56;4.80;;;3.22;;
26151;SDS011;13907;53.154;8.202;2022-09-09T01:30:24;5.32;;;3.40;;
26151;SDS011;13907;53.154;8.202;2022-09-09T01:32:53;3.97;;;2.83;;
26151;SDS011;13907;53.154;8.202;2022-09-09T01:35:27;4.18;;;3.10;;
26151;SDS011;13907;53.154;8.202;2022-09-09T01:37:55;4.05;;;3.08;;
26151;SDS011;13907;53.154;8.202;2022-09-09T01:40:23;4.25;;;3.10;;
26151;SDS011;13907;53.154;8.202;2022-09-09T01:42:50;4.20;;;3.17;;
26151;SDS011;13907;53.154;8.202;2022-09-09T01:45:19;5.68;;;4.00;;
26151;SDS011;13907;53.154;8.202;2022-09-09T01:47:46;3.80;;;3.40;;
26151;SDS011;13907;53.154;8.202;2022-09-09T01:50:15;4.35;;;3.55;;
26151;SDS011;13907;53.154;8.202;2022-09-09T01:52:43;4.57;;;3.70;;
26151;SDS011;13907;53.154;8.202;2022-09-09T01:55:10;4.30;;;3.63;;
26151;SDS011;13907;53.154;8.202;2022-09-09T01:57:39;5.50;;;4.10;;
26151;SDS011;13907;53.154;8.202;2022-09-09T02:00:09;5.70;;;4.20;;
26151;SDS011;13907;53.154;8.202;2022-09-09T02:02:41;5.13;;;4.03;;
26151;SDS011;13907;53.154;8.202;2022-09-09T02:05:16;6.18;;;3.90;;
26151;SDS011;13907;53.154;8.202;2022-09-09T02:07:48;5.95;;;4.32;;
26151;SDS011;13907;53.154;8.202;2022-09-09T02:10:17;7.18;;;4.03;;
26151;SDS011;13907;53.154;8.202;2022-09-09T02:12:45;4.03;;;3.63;;
26151;SDS011;13907;53.154;8.202;2022-09-09T02:15:16;4.50;;;3.15;;
26151;SDS011;13907;53.154;8.202;2022-09-09T02:17:45;10.32;;;4.40;;
26151;SDS011;13907;53.154;8.202;2022-09-09T02:20:13;7.82;;;3.80;;
26151;SDS011;13907;53.154;8.202;2022-09-09T02:22:42;5.00;;;3.53;;
26151;SDS011;13907;53.154;8.202;2022-09-09T02:25:12;4.00;;;3.30;;
26151;SDS011;13907;53.154;8.202;2022-09-09T02:27:40;7.68;;;3.40;;
26151;SDS011;13907;53.154;8.202;2022-09-09T02:30:08;6.30;;;3.55;;
26151;SDS011;13907;53.154;8.202;2022-09-09T02:32:36;3.47;;;3.05;;
26151;SDS011;13907;53.154;8.202;2022-09-09T02:35:07;4.80;;;3.15;;
26151;SDS011;13907;53.154;8.202;2022-09-09T02:37:36;4.45;;;3.40;;
26151;SDS011;13907;53.154;8.202;2022-09-09T02:40:04;5.95;;;4.22;;
26151;SDS011;13907;53.154;8.202;2022-09-09T02:42:31;4.10;;;2.90;;
26151;SDS011;13907;53.154;8.202;2022-09-09T02:44:59;4.73;;;3.53;;
26151;SDS011;13907;53.154;8.202;2022-09-09T02:47:29;7.00;;;3.58;;
26151;SDS011;13907;53.154;8.202;2022-09-09T02:49:59;4.13;;;3.13;;
26151;SDS011;13907;53.154;8.202;2022-09-09T02:52:32;7.03;;;3.72;;
26151;SDS011;13907;53.154;8.202;2022-09-09T02:55:04;3.40;;;2.83;;
26151;SDS011;13907;53.154;8.202;2022-09-09T02:57:33;3.25;;;2.95;;
26151;SDS011;13907;53.154;8.202;2022-09-09T03:00:01;7.07;;;4.00;;
26151;SDS011;13907;53.154;8.202;2022-09-09T03:02:29;6.97;;;3.33;;
26151;SDS011;13907;53.154;8.202;2022-09-09T03:04:56;5.07;;;3.10;;
26151;SDS011;13907;53.154;8.202;2022-09-09T03:07:23;5.28;;;3.15;;
26151;SDS011;13907;53.154;8.202;2022-09-09T03:09:51;6.93;;;3.28;;
26151;SDS011;13907;53.154;8.202;2022-09-09T03:12:19;5.10;;;3.50;;
26151;SDS011;13907;53.154;8.202;2022-09-09T03:14:46;6.35;;;3.25;;
26151;SDS011;13907;53.154;8.202;2022-09-09T03:17:14;3.05;;;2.38;;
26151;SDS011;13907;53.154;8.202;2022-09-09T03:19:41;4.07;;;3.42;;
26151;SDS011;13907;53.154;8.202;2022-09-09T03:22:09;4.88;;;2.92;;
26151;SDS011;13907;53.154;8.202;2022-09-09T03:24:36;3.60;;;2.83;;
26151;SDS011;13907;53.154;8.202;2022-09-09T03:27:05;4.28;;;2.95;;
26151;SDS011;13907;53.154;8.202;2022-09-09T03:29:32;6.90;;;3.95;;
26151;SDS011;13907;53.154;8.202;2022-09-09T03:31:59;5.20;;;3.30;;
26151;SDS011;13907;53.154;8.202;2022-09-09T03:34:26;4.60;;;3.00;;
26151;SDS011;13907;53.154;8.202;2022-09-09T03:36:53;3.25;;;2.88;;
26151;SDS011;13907;53.154;8.202;2022-09-09T03:39:20;5.95;;;2.90;;
26151;SDS011;13907;53.154;8.202;2022-09-09T03:41:47;4.55;;;3.00;;
26151;SDS011;13907;53.154;8.202;2022-09-09T03:44:16;5.80;;;3.28;;
26151;SDS011;13907;53.154;8.202;2022-09-09T03:46:43;3.90;;;2.75;;
26151;SDS011;13907;53.154;8.202;2022-09-09T03:49:10;3.88;;;2.90;;
26151;SDS011;13907;53.154;8.202;2022-09-09T03:51:37;4.70;;;3.60;;
26151;SDS011;13907;53.154;8.202;2022-09-09T03:54:05;6.22;;;3.30;;
26151;SDS011;13907;53.154;8.202;2022-09-09T03:56:35;3.75;;;2.85;;
26151;SDS011;13907;53.154;8.202;2022-09-09T03:59:02;3.22;;;2.53;;
26151;SDS011;13907;53.154;8.202;2022-09-09T04:01:30;3.97;;;2.65;;
26151;SDS011;13907;53.154;8.202;2022-09-09T04:03:57;4.32;;;3.10;;
26151;SDS011;13907;53.154;8.202;2022-09-09T04:06:25;5.43;;;3.05;;
26151;SDS011;13907;53.154;8.202;2022-09-09T04:08:52;4.15;;;2.80;;
26151;SDS011;13907;53.154;8.202;2022-09-09T04:11:20;4.17;;;2.97;;
26151;SDS011;13907;53.154;8.202;2022-09-09T04:13:47;4.33;;;2.70;;
26151;SDS011;13907;53.154;8.202;2022-09-09T04:16:14;4.70;;;3.08;;
26151;SDS011;13907;53.154;8.202;2022-09-09T04:18:43;5.55;;;2.88;;
26151;SDS011;13907;53.154;8.202;2022-09-09T04:21:10;4.47;;;2.90;;
26151;SDS011;13907;53.154;8.202;2022-09-09T04:23:38;3.38;;;2.38;;
26151;SDS011;13907;53.154;8.202;2022-09-09T04:26:05;4.10;;;2.70;;
26151;SDS011;13907;53.154;8.202;2022-09-09T04:28:35;3.33;;;2.67;;
26151;SDS011;13907;53.154;8.202;2022-09-09T04:31:05;6.18;;;2.47;;
26151;SDS011;13907;53.154;8.202;2022-09-09T04:33:33;4.32;;;3.05;;
26151;SDS011;13907;53.154;8.202;2022-09-09T04:36:01;3.67;;;2.47;;
26151;SDS011;13907;53.154;8.202;2022-09-09T04:38:28;5.38;;;2.80;;
26151;SDS011;13907;53.154;8.202;2022-09-09T04:40:55;4.22;;;2.78;;
26151;SDS011;13907;53.154;8.202;2022-09-09T04:43:23;5.73;;;3.07;;
26151;SDS011;13907;53.154;8.202;2022-09-09T04:45:52;2.35;;;2.03;;
26151;SDS011;13907;53.154;8.202;2022-09-09T04:48:20;19.67;;;3.60;;
26151;SDS011;13907;53.154;8.202;2022-09-09T04:50:54;4.93;;;3.00;;
26151;SDS011;13907;53.154;8.202;2022-09-09T04:53:23;2.30;;;2.10;;
26151;SDS011;13907;53.154;8.202;2022-09-09T04:55:50;4.67;;;2.70;;
26151;SDS011;13907;53.154;8.202;2022-09-09T04:58:17;3.87;;;2.00;;
26151;SDS011;13907;53.154;8.202;2022-09-09T05:00:46;5.13;;;1.93;;
26151;SDS011;13907;53.154;8.202;2022-09-09T05:03:13;2.70;;;2.00;;
26151;SDS011;13907;53.154;8.202;2022-09-09T05:05:40;4.10;;;2.80;;
26151;SDS011;13907;53.154;8.202;2022-09-09T05:08:08;3.03;;;2.30;;
26151;SDS011;13907;53.154;8.202;2022-09-09T05:10:38;3.50;;;2.50;;
26151;SDS011;13907;53.154;8.202;2022-09-09T05:13:06;2.22;;;1.95;;
26151;SDS011;13907;53.154;8.202;2022-09-09T05:15:34;2.27;;;2.07;;
26151;SDS011;13907;53.154;8.202;2022-09-09T05:18:01;2.53;;;2.00;;
26151;SDS011;13907;53.154;8.202;2022-09-09T05:20:29;2.50;;;2.17;;
26151;SDS011;13907;53.154;8.202;2022-09-09T05:22:57;3.13;;;2.07;;
26151;SDS011;13907;53.154;8.202;2022-09-09T05:25:24;2.75;;;2.30;;
26151;SDS011;13907;53.154;8.202;2022-09-09T05:27:52;2.95;;;2.22;;
26151;SDS011;13907;53.154;8.202;2022-09-09T05:30:20;2.50;;;2.30;;
26151;SDS011;13907;53.154;8.202;2022-09-09T05:32:47;3.10;;;2.37;;
26151;SDS011;13907;53.154;8.202;2022-09-09T05:35:14;2.65;;;2.40;;
26151;SDS011;13907;53.154;8.202;2022-09-09T05:37:42;4.88;;;2.38;;
26151;SDS011;13907;53.154;8.202;2022-09-09T05:40:11;5.72;;;2.75;;
26151;SDS011;13907;53.154;8.202;2022-09-09T05:42:38;2.83;;;1.95;;
26151;SDS011;13907;53.154;8.202;2022-09-09T05:45:07;7.32;;;2.53;;
26151;SDS011;13907;53.154;8.202;2022-09-09T05:47:34;3.85;;;2.72;;
26151;SDS011;13907;53.154;8.202;2022-09-09T05:50:02;2.13;;;1.90;;
26151;SDS011;13907;53.154;8.202;2022-09-09T05:52:29;3.92;;;2.63;;
26151;SDS011;13907;53.154;8.202;2022-09-09T05:54:56;3.25;;;2.13;;
26151;SDS011;13907;53.154;8.202;2022-09-09T05:57:24;2.78;;;2.08;;
26151;SDS011;13907;53.154;8.202;2022-09-09T05:59:51;2.67;;;1.95;;
26151;SDS011;13907;53.154;8.202;2022-09-09T06:02:20;2.10;;;1.83;;
26151;SDS011;13907;53.154;8.202;2022-09-09T06:04:47;2.33;;;2.13;;
26151;SDS011;13907;53.154;8.202;2022-09-09T06:07:15;4.63;;;2.97;;
26151;SDS011;13907;53.154;8.202;2022-09-09T06:09:42;4.15;;;2.47;;
26151;SDS011;13907;53.154;8.202;2022-09-09T06:12:09;3.90;;;2.97;;
26151;SDS011;13907;53.154;8.202;2022-09-09T06:14:36;2.00;;;1.80;;
26151;SDS011;13907;53.154;8.202;2022-09-09T06:17:03;2.42;;;2.08;;
26151;SDS011;13907;53.154;8.202;2022-09-09T06:19:32;3.35;;;1.88;;
26151;SDS011;13907;53.154;8.202;2022-09-09T06:22:00;9.50;;;2.15;;
26151;SDS011;13907;53.154;8.202;2022-09-09T06:24:27;2.08;;;1.58;;
26151;SDS011;13907;53.154;8.202;2022-09-09T06:26:55;2.65;;;1.77;;
26151;SDS011;13907;53.154;8.202;2022-09-09T06:29:22;1.77;;;1.60;;
26151;SDS011;13907;53.154;8.202;2022-09-09T06:31:49;3.33;;;1.90;;
26151;SDS011;13907;53.154;8.202;2022-09-09T06:34:16;2.17;;;1.90;;
26151;SDS011;13907;53.154;8.202;2022-09-09T06:36:44;4.82;;;1.70;;
26151;SDS011;13907;53.154;8.202;2022-09-09T06:39:12;1.85;;;1.40;;
26151;SDS011;13907;53.154;8.202;2022-09-09T06:41:40;3.67;;;1.58;;
26151;SDS011;13907;53.154;8.202;2022-09-09T06:44:08;2.20;;;2.00;;
26151;SDS011;13907;53.154;8.202;2022-09-09T06:46:36;3.85;;;2.10;;
26151;SDS011;13907;53.154;8.202;2022-09-09T06:49:04;2.30;;;1.67;;
26151;SDS011;13907;53.154;8.202;2022-09-09T06:51:33;2.40;;;1.77;;
26151;SDS011;13907;53.154;8.202;2022-09-09T06:54:02;3.53;;;2.00;;
26151;SDS011;13907;53.154;8.202;2022-09-09T06:56:30;3.03;;;1.70;;
26151;SDS011;13907;53.154;8.202;2022-09-09T06:58:57;2.15;;;1.75;;
26151;SDS011;13907;53.154;8.202;2022-09-09T07:01:26;2.50;;;2.10;;
26151;SDS011;13907;53.154;8.202;2022-09-09T07:03:55;4.93;;;2.55;;
26151;SDS011;13907;53.154;8.202;2022-09-09T07:06:24;2.80;;;2.05;;
26151;SDS011;13907;53.154;8.202;2022-09-09T07:08:52;3.75;;;1.67;;
26151;SDS011;13907;53.154;8.202;2022-09-09T07:11:21;1.95;;;1.52;;
26151;SDS011;13907;53.154;8.202;2022-09-09T07:13:49;3.80;;;2.55;;
26151;SDS011;13907;53.154;8.202;2022-09-09T07:16:17;2.88;;;2.40;;
26151;SDS011;13907;53.154;8.202;2022-09-09T07:18:45;3.03;;;1.90;;
26151;SDS011;13907;53.154;8.202;2022-09-09T07:21:13;3.33;;;2.45;;
26151;SDS011;13907;53.154;8.202;2022-09-09T07:23:41;3.17;;;2.05;;
26151;SDS011;13907;53.154;8.202;2022-09-09T07:26:08;2.22;;;2.05;;
26151;SDS011;13907;53.154;8.202;2022-09-09T07:28:37;5.68;;;2.30;;
26151;SDS011;13907;53.154;8.202;2022-09-09T07:31:06;3.17;;;2.00;;
26151;SDS011;13907;53.154;8.202;2022-09-09T07:33:34;4.43;;;2.42;;
26151;SDS011;13907;53.154;8.202;2022-09-09T07:36:03;3.92;;;2.50;;
26151;SDS011;13907;53.154;8.202;2022-09-09T07:38:30;2.85;;;2.20;;
26151;SDS011;13907;53.154;8.202;2022-09-09T07:41:02;2.30;;;2.10;;
26151;SDS011;13907;53.154;8.202;2022-09-09T07:43:31;4.10;;;1.95;;
26151;SDS011;13907;53.154;8.202;2022-09-09T07:46:00;2.67;;;1.90;;
26151;SDS011;13907;53.154;8.202;2022-09-09T07:48:27;2.67;;;2.03;;
26151;SDS011;13907;53.154;8.202;2022-09-09T07:51:02;2.63;;;2.08;;
26151;SDS011;13907;53.154;8.202;2022-09-09T07:53:30;4.32;;;2.42;;
26151;SDS011;13907;53.154;8.202;2022-09-09T07:56:01;3.97;;;2.80;;
26151;SDS011;13907;53.154;8.202;2022-09-09T07:58:29;3.03;;;2.38;;
26151;SDS011;13907;53.154;8.202;2022-09-09T08:00:56;4.40;;;2.28;;
26151;SDS011;13907;53.154;8.202;2022-09-09T08:03:24;3.15;;;2.10;;
26151;SDS011;13907;53.154;8.202;2022-09-09T08:05:51;2.92;;;2.45;;
26151;SDS011;13907;53.154;8.202;2022-09-09T08:08:19;2.63;;;2.40;;
26151;SDS011;13907;53.154;8.202;2022-09-09T08:10:46;3.45;;;2.15;;
26151;SDS011;13907;53.154;8.202;2022-09-09T08:13:13;6.05;;;2.72;;
26151;SDS011;13907;53.154;8.202;2022-09-09T08:15:40;8.23;;;2.13;;
26151;SDS011;13907;53.154;8.202;2022-09-09T08:18:08;2.15;;;1.92;;
26151;SDS011;13907;53.154;8.202;2022-09-09T08:20:37;5.95;;;2.05;;
26151;SDS011;13907;53.154;8.202;2022-09-09T08:23:04;3.13;;;2.03;;
26151;SDS011;13907;53.154;8.202;2022-09-09T08:25:31;3.58;;;1.63;;
26151;SDS011;13907;53.154;8.202;2022-09-09T08:27:59;3.45;;;2.15;;
26151;SDS011;13907;53.154;8.202;2022-09-09T08:30:26;2.63;;;1.73;;
26151;SDS011;13907;53.154;8.202;2022-09-09T08:32:54;2.15;;;1.88;;
26151;SDS011;13907;53.154;8.202;2022-09-09T08:35:22;3.40;;;1.48;;
26151;SDS011;13907;53.154;8.202;2022-09-09T08:37:54;3.97;;;2.05;;
26151;SDS011;13907;53.154;8.202;2022-09-09T08:40:22;2.03;;;1.85;;
26151;SDS011;13907;53.154;8.202;2022-09-09T08:42:52;1.98;;;1.33;;
26151;SDS011;13907;53.154;8.202;2022-09-09T08:45:22;8.82;;;2.80;;
26151;SDS011;13907;53.154;8.202;2022-09-09T08:47:54;2.20;;;1.73;;
26151;SDS011;13907;53.154;8.202;2022-09-09T08:50:24;4.15;;;1.58;;
26151;SDS011;13907;53.154;8.202;2022-09-09T08:52:56;2.95;;;1.63;;
26151;SDS011;13907;53.154;8.202;2022-09-09T08:55:30;2.30;;;1.90;;
26151;SDS011;13907;53.154;8.202;2022-09-09T08:58:01;2.67;;;1.73;;
26151;SDS011;13907;53.154;8.202;2022-09-09T09:00:33;1.40;;;1.30;;
26151;SDS011;13907;53.154;8.202;2022-09-09T09:03:04;4.50;;;1.73;;
26151;SDS011;13907;53.154;8.202;2022-09-09T09:05:35;5.45;;;1.70;;
26151;SDS011;13907;53.154;8.202;2022-09-09T09:08:08;3.13;;;2.10;;
26151;SDS011;13907;53.154;8.202;2022-09-09T09:10:43;5.80;;;1.17;;
26151;SDS011;13907;53.154;8.202;2022-09-09T09:15:40;3.28;;;1.48;;
26151;SDS011;13907;53.154;8.202;2022-09-09T09:18:10;2.78;;;0.95;;
26151;SDS011;13907;53.154;8.202;2022-09-09T09:20:40;3.92;;;1.45;;
26151;SDS011;13907;53.154;8.202;2022-09-09T09:23:12;1.08;;;0.95;;
26151;SDS011;13907;53.154;8.202;2022-09-09T09:25:43;1.17;;;0.95;;
26151;SDS011;13907;53.154;8.202;2022-09-09T09:28:12;2.28;;;1.75;;
26151;SDS011;13907;53.154;8.202;2022-09-09T09:30:42;1.48;;;1.00;;
26151;SDS011;13907;53.154;8.202;2022-09-09T09:33:14;1.55;;;1.30;;
26151;SDS011;13907;53.154;8.202;2022-09-09T09:35:42;3.40;;;1.52;;
26151;SDS011;13907;53.154;8.202;2022-09-09T09:38:13;1.88;;;1.30;;
26151;SDS011;13907;53.154;8.202;2022-09-09T09:40:47;1.30;;;1.10;;
26151;SDS011;13907;53.154;8.202;2022-09-09T09:43:18;3.22;;;1.75;;
26151;SDS011;13907;53.154;8.202;2022-09-09T09:45:46;2.97;;;1.55;;
26151;SDS011;13907;53.154;8.202;2022-09-09T09:48:14;3.28;;;1.40;;
26151;SDS011;13907;53.154;8.202;2022-09-09T09:50:46;2.90;;;1.33;;
26151;SDS011;13907;53.154;8.202;2022-09-09T09:53:20;1.02;;;0.98;;
26151;SDS011;13907;53.154;8.202;2022-09-09T09:55:50;2.58;;;1.13;;
26151;SDS011;13907;53.154;8.202;2022-09-09T09:58:19;3.03;;;1.23;;
26151;SDS011;13907;53.154;8.202;2022-09-09T10:00:49;3.08;;;1.38;;
26151;SDS011;13907;53.154;8.202;2022-09-09T10:03:20;1.33;;;1.23;;
26151;SDS011;13907;53.154;8.202;2022-09-09T10:05:48;2.03;;;1.30;;
26151;SDS011;13907;53.154;8.202;2022-09-09T10:08:16;1.80;;;1.30;;
26151;SDS011;13907;53.154;8.202;2022-09-09T10:10:51;2.03;;;1.48;;
26151;SDS011;13907;53.154;8.202;2022-09-09T10:13:23;1.25;;;1.13;;
26151;SDS011;13907;53.154;8.202;2022-09-09T10:15:56;3.83;;;1.88;;
26151;SDS011;13907;53.154;8.202;2022-09-09T10:18:34;1.70;;;1.30;;
26151;SDS011;13907;53.154;8.202;2022-09-09T10:21:04;2.08;;;1.25;;
26151;SDS011;13907;53.154;8.202;2022-09-09T10:23:40;4.78;;;1.35;;
26151;SDS011;13907;53.154;8.202;2022-09-09T10:26:14;1.83;;;1.10;;
26151;SDS011;13907;53.154;8.202;2022-09-09T10:28:52;1.73;;;0.98;;
26151;SDS011;13907;53.154;8.202;2022-09-09T10:31:22;0.75;;;0.75;;
26151;SDS011;13907;53.154;8.202;2022-09-09T10:33:54;2.35;;;1.05;;
26151;SDS011;13907;53.154;8.202;2022-09-09T10:36:25;1.60;;;1.08;;
26151;SDS011;13907;53.154;8.202;2022-09-09T10:38:53;4.43;;;1.13;;
26151;SDS011;13907;53.154;8.202;2022-09-09T10:41:26;3.00;;;1.33;;
26151;SDS011;13907;53.154;8.202;2022-09-09T10:44:05;1.35;;;0.98;;
26151;SDS011;13907;53.154;8.202;2022-09-09T10:46:35;9.50;;;2.47;;
26151;SDS011;13907;53.154;8.202;2022-09-09T10:49:10;2.58;;;1.33;;
26151;SDS011;13907;53.154;8.202;2022-09-09T10:51:43;2.10;;;1.30;;
26151;SDS011;13907;53.154;8.202;2022-09-09T10:54:14;2.97;;;1.33;;
26151;SDS011;13907;53.154;8.202;2022-09-09T10:56:43;1.45;;;1.13;;
26151;SDS011;13907;53.154;8.202;2022-09-09T10:59:12;2.88;;;1.17;;
26151;SDS011;13907;53.154;8.202;2022-09-09T11:01:41;4.40;;;1.45;;
26151;SDS011;13907;53.154;8.202;2022-09-09T11:04:12;3.50;;;1.50;;
26151;SDS011;13907;53.154;8.202;2022-09-09T11:06:41;6.05;;;1.35;;
26151;SDS011;13907;53.154;8.202;2022-09-09T11:09:16;1.58;;;1.15;;
26151;SDS011;13907;53.154;8.202;2022-09-09T11:11:46;0.95;;;0.90;;
26151;SDS011;13907;53.154;8.202;2022-09-09T11:14:18;2.75;;;1.30;;
26151;SDS011;13907;53.154;8.202;2022-09-09T11:16:47;1.05;;;1.05;;
26151;SDS011;13907;53.154;8.202;2022-09-09T11:19:16;2.75;;;1.48;;
26151;SDS011;13907;53.154;8.202;2022-09-09T11:21:46;1.20;;;1.05;;
26151;SDS011;13907;53.154;8.202;2022-09-09T11:24:15;1.20;;;1.10;;
26151;SDS011;13907;53.154;8.202;2022-09-09T11:26:47;1.88;;;1.10;;
26151;SDS011;13907;53.154;8.202;2022-09-09T11:29:21;3.35;;;1.65;;
26151;SDS011;13907;53.154;8.202;2022-09-09T11:31:57;2.08;;;1.20;;
26151;SDS011;13907;53.154;8.202;2022-09-09T11:37:17;1.23;;;1.08;;
26151;SDS011;13907;53.154;8.202;2022-09-09T11:39:51;2.92;;;1.20;;
26151;SDS011;13907;53.154;8.202;2022-09-09T11:42:24;3.22;;;1.70;;
26151;SDS011;13907;53.154;8.202;2022-09-09T11:44:51;3.00;;;1.33;;
26151;SDS011;13907;53.154;8.202;2022-09-09T11:47:21;1.80;;;1.38;;
26151;SDS011;13907;53.154;8.202;2022-09-09T11:49:49;3.17;;;1.42;;
26151;SDS011;13907;53.154;8.202;2022-09-09T11:52:21;3.65;;;1.10;;
26151;SDS011;13907;53.154;8.202;2022-09-09T11:54:50;1.42;;;1.33;;
26151;SDS011;13907;53.154;8.202;2022-09-09T11:57:23;1.20;;;1.10;;
26151;SDS011;13907;53.154;8.202;2022-09-09T11:59:53;1.00;;;1.00;;
26151;SDS011;13907;53.154;8.202;2022-09-09T12:02:22;4.53;;;1.42;;
26151;SDS011;13907;53.154;8.202;2022-09-09T12:04:54;1.65;;;1.50;;
26151;SDS011;13907;53.154;8.202;2022-09-09T12:07:28;2.90;;;1.83;;
26151;SDS011;13907;53.154;8.202;2022-09-09T12:09:58;1.77;;;1.67;;
26151;SDS011;13907;53.154;8.202;2022-09-09T12:12:30;3.65;;;2.10;;
26151;SDS011;13907;53.154;8.202;2022-09-09T12:15:01;1.90;;;1.73;;
26151;SDS011;13907;53.154;8.202;2022-09-09T12:17:29;3.08;;;2.08;;
26151;SDS011;13907;53.154;8.202;2022-09-09T12:20:00;3.42;;;1.73;;
26151;SDS011;13907;53.154;8.202;2022-09-09T12:22:32;4.22;;;1.80;;
26151;SDS011;13907;53.154;8.202;2022-09-09T12:25:04;5.60;;;1.98;;
26151;SDS011;13907;53.154;8.202;2022-09-09T12:27:40;4.45;;;1.60;;
26151;SDS011;13907;53.154;8.202;2022-09-09T12:30:11;7.50;;;2.67;;
26151;SDS011;13907;53.154;8.202;2022-09-09T12:32:38;3.38;;;1.63;;
26151;SDS011;13907;53.154;8.202;2022-09-09T12:35:09;4.75;;;1.35;;
26151;SDS011;13907;53.154;8.202;2022-09-09T12:37:38;4.15;;;2.20;;
26151;SDS011;13907;53.154;8.202;2022-09-09T12:40:18;2.13;;;1.40;;
26151;SDS011;13907;53.154;8.202;2022-09-09T12:42:45;2.28;;;1.30;;
26151;SDS011;13907;53.154;8.202;2022-09-09T12:45:18;2.97;;;1.90;;
26151;SDS011;13907;53.154;8.202;2022-09-09T12:47:46;2.10;;;1.90;;
26151;SDS011;13907;53.154;8.202;2022-09-09T12:50:15;2.33;;;2.10;;
26151;SDS011;13907;53.154;8.202;2022-09-09T12:52:43;2.60;;;1.85;;
26151;SDS011;13907;53.154;8.202;2022-09-09T12:55:16;3.30;;;2.20;;
26151;SDS011;13907;53.154;8.202;2022-09-09T12:57:45;2.47;;;1.80;;
26151;SDS011;13907;53.154;8.202;2022-09-09T13:00:16;6.75;;;1.88;;
26151;SDS011;13907;53.154;8.202;2022-09-09T13:02:47;3.75;;;1.83;;
26151;SDS011;13907;53.154;8.202;2022-09-09T13:05:16;1.27;;;1.20;;
26151;SDS011;13907;53.154;8.202;2022-09-09T13:07:45;6.38;;;2.00;;
26151;SDS011;13907;53.154;8.202;2022-09-09T13:10:13;1.35;;;1.20;;
26151;SDS011;13907;53.154;8.202;2022-09-09T13:12:41;5.15;;;1.52;;
26151;SDS011;13907;53.154;8.202;2022-09-09T13:15:12;2.97;;;1.98;;
26151;SDS011;13907;53.154;8.202;2022-09-09T13:17:41;1.40;;;1.30;;
26151;SDS011;13907;53.154;8.202;2022-09-09T13:20:17;2.17;;;1.40;;
26151;SDS011;13907;53.154;8.202;2022-09-09T13:22:44;1.60;;;1.27;;
26151;SDS011;13907;53.154;8.202;2022-09-09T13:25:17;1.50;;;1.40;;
26151;SDS011;13907;53.154;8.202;2022-09-09T13:27:51;1.65;;;1.40;;
26151;SDS011;13907;53.154;8.202;2022-09-09T13:30:20;4.65;;;2.08;;
26151;SDS011;13907;53.154;8.202;2022-09-09T13:32:59;2.40;;;1.52;;
26151;SDS011;13907;53.154;8.202;2022-09-09T13:35:29;2.17;;;1.92;;
26151;SDS011;13907;53.154;8.202;2022-09-09T13:37:56;2.25;;;1.75;;
26151;SDS011;13907;53.154;8.202;2022-09-09T13:40:24;2.35;;;1.75;;
26151;SDS011;13907;53.154;8.202;2022-09-09T13:42:54;4.10;;;2.00;;
26151;SDS011;13907;53.154;8.202;2022-09-09T13:45:24;2.67;;;1.60;;
26151;SDS011;13907;53.154;8.202;2022-09-09T13:47:53;1.50;;;1.40;;
26151;SDS011;13907;53.154;8.202;2022-09-09T13:50:22;1.05;;;0.95;;
26151;SDS011;13907;53.154;8.202;2022-09-09T13:52:51;1.77;;;1.67;;
26151;SDS011;13907;53.154;8.202;2022-09-09T13:55:18;1.40;;;1.30;;
26151;SDS011;13907;53.154;8.202;2022-09-09T13:57:51;2.55;;;1.30;;
26151;SDS011;13907;53.154;8.202;2022-09-09T14:00:19;4.53;;;1.85;;
26151;SDS011;13907;53.154;8.202;2022-09-09T14:02:46;1.65;;;1.00;;
26151;SDS011;13907;53.154;8.202;2022-09-09T14:05:14;1.23;;;1.13;;
26151;SDS011;13907;53.154;8.202;2022-09-09T14:07:41;1.35;;;0.98;;
26151;SDS011;13907;53.154;8.202;2022-09-09T14:10:10;2.85;;;0.93;;
26151;SDS011;13907;53.154;8.202;2022-09-09T14:12:38;1.27;;;1.00;;
26151;SDS011;13907;53.154;8.202;2022-09-09T14:15:05;0.90;;;0.90;;
26151;SDS011;13907;53.154;8.202;2022-09-09T14:17:33;0.80;;;0.80;;
26151;SDS011;13907;53.154;8.202;2022-09-09T14:20:01;1.13;;;0.90;;
26151;SDS011;13907;53.154;8.202;2022-09-09T14:22:30;1.00;;;0.75;;
26151;SDS011;13907;53.154;8.202;2022-09-09T14:24:57;1.27;;;1.00;;
26151;SDS011;13907;53.154;8.202;2022-09-09T14:27:25;2.45;;;1.00;;
26151;SDS011;13907;53.154;8.202;2022-09-09T14:29:52;1.23;;;1.13;;
26151;SDS011;13907;53.154;8.202;2022-09-09T14:32:19;1.52;;;1.25;;
26151;SDS011;13907;53.154;8.202;2022-09-09T14:34:46;1.10;;;0.68;;
26151;SDS011;13907;53.154;8.202;2022-09-09T14:37:14;1.50;;;1.15;;
26151;SDS011;13907;53.154;8.202;2022-09-09T14:39:42;0.88;;;0.82;;
26151;SDS011;13907;53.154;8.202;2022-09-09T14:42:09;1.48;;;1.35;;
26151;SDS011;13907;53.154;8.202;2022-09-09T14:44:39;0.77;;;0.77;;
26151;SDS011;13907;53.154;8.202;2022-09-09T14:47:06;1.20;;;1.10;;
26151;SDS011;13907;53.154;8.202;2022-09-09T14:49:34;1.00;;;1.00;;
26151;SDS011;13907;53.154;8.202;2022-09-09T14:52:02;4.63;;;1.10;;
26151;SDS011;13907;53.154;8.202;2022-09-09T14:54:29;1.48;;;1.05;;
26151;SDS011;13907;53.154;8.202;2022-09-09T14:56:57;0.90;;;0.90;;
26151;SDS011;13907;53.154;8.202;2022-09-09T14:59:24;4.28;;;1.08;;
26151;SDS011;13907;53.154;8.202;2022-09-09T15:01:53;2.05;;;1.05;;
26151;SDS011;13907;53.154;8.202;2022-09-09T15:04:20;0.85;;;0.85;;
26151;SDS011;13907;53.154;8.202;2022-09-09T15:06:47;1.25;;;0.80;;